sensor_id;sensor_type;location;lat;lon;timestamp;temperature;humidity
12049;DHT22;6085;49.452;8.502;2023-06-14T00:03:45;17.70;84.90
12049;DHT22;6085;49.452;8.502;2023-06-14T00:07:47;17.60;84.50
12049;DHT22;6085;49.452;8.502;2023-06-14T00:11:51;17.50;84.30
12049;DHT22;6085;49.452;8.502;2023-06-14T00:15:53;17.40;85.00
12049;DHT22;6085;49.452;8.502;2023-06-14T00:19:56;17.30;87.00
12049;DHT22;6085;49.452;8.502;2023-06-14T00:23:59;17.10;88.70
12049;DHT22;6085;49.452;8.502;2023-06-14T00:28:02;17.00;90.00
12049;DHT22;6085;49.452;8.502;2023-06-14T00:32:05;16.80;90.70
12049;DHT22;6085;49.452;8.502;2023-06-14T00:36:08;16.70;91.60
12049;DHT22;6085;49.452;8.502;2023-06-14T00:40:10;16.60;92.40
12049;DHT22;6085;49.452;8.502;2023-06-14T00:44:16;16.50;93.40
12049;DHT22;6085;49.452;8.502;2023-06-14T00:48:19;16.40;94.10
12049;DHT22;6085;49.452;8.502;2023-06-14T00:52:22;16.30;94.70
12049;DHT22;6085;49.452;8.502;2023-06-14T00:56:24;16.30;96.00
12049;DHT22;6085;49.452;8.502;2023-06-14T01:00:29;16.20;96.20
12049;DHT22;6085;49.452;8.502;2023-06-14T01:04:31;16.20;97.00
12049;DHT22;6085;49.452;8.502;2023-06-14T01:08:40;16.10;98.00
12049;DHT22;6085;49.452;8.502;2023-06-14T01:12:52;16.00;98.40
12049;DHT22;6085;49.452;8.502;2023-06-14T01:17:01;16.00;99.20
12049;DHT22;6085;49.452;8.502;2023-06-14T01:21:03;16.00;99.40
12049;DHT22;6085;49.452;8.502;2023-06-14T01:25:08;16.00;99.70
12049;DHT22;6085;49.452;8.502;2023-06-14T01:29:10;16.00;99.70
12049;DHT22;6085;49.452;8.502;2023-06-14T01:33:12;16.00;99.60
12049;DHT22;6085;49.452;8.502;2023-06-14T01:37:16;16.00;99.10
12049;DHT22;6085;49.452;8.502;2023-06-14T01:41:21;16.20;98.30
12049;DHT22;6085;49.452;8.502;2023-06-14T01:45:23;16.30;97.70
12049;DHT22;6085;49.452;8.502;2023-06-14T01:49:26;16.30;97.80
12049;DHT22;6085;49.452;8.502;2023-06-14T01:53:28;16.40;97.30
12049;DHT22;6085;49.452;8.502;2023-06-14T01:57:32;16.40;97.50
12049;DHT22;6085;49.452;8.502;2023-06-14T02:01:34;16.40;97.60
12049;DHT22;6085;49.452;8.502;2023-06-14T02:05:37;16.40;98.10
12049;DHT22;6085;49.452;8.502;2023-06-14T02:09:40;16.30;98.40
12049;DHT22;6085;49.452;8.502;2023-06-14T02:13:43;16.30;98.40
12049;DHT22;6085;49.452;8.502;2023-06-14T02:17:46;16.20;99.00
12049;DHT22;6085;49.452;8.502;2023-06-14T02:21:49;16.20;99.00
12049;DHT22;6085;49.452;8.502;2023-06-14T02:25:51;16.20;99.20
12049;DHT22;6085;49.452;8.502;2023-06-14T02:29:55;16.20;98.90
12049;DHT22;6085;49.452;8.502;2023-06-14T02:33:56;16.20;98.60
12049;DHT22;6085;49.452;8.502;2023-06-14T02:37:59;16.30;98.70
12049;DHT22;6085;49.452;8.502;2023-06-14T02:42:01;16.30;98.40
12049;DHT22;6085;49.452;8.502;2023-06-14T02:46:04;16.30;98.80
12049;DHT22;6085;49.452;8.502;2023-06-14T02:50:08;16.30;99.00
12049;DHT22;6085;49.452;8.502;2023-06-14T02:54:10;16.30;99.00
12049;DHT22;6085;49.452;8.502;2023-06-14T02:58:12;16.30;99.30
12049;DHT22;6085;49.452;8.502;2023-06-14T03:02:16;16.30;99.70
12049;DHT22;6085;49.452;8.502;2023-06-14T03:06:18;16.20;99.90
12049;DHT22;6085;49.452;8.502;2023-06-14T03:10:20;16.10;99.90
12049;DHT22;6085;49.452;8.502;2023-06-14T03:14:22;16.10;99.90
12049;DHT22;6085;49.452;8.502;2023-06-14T03:18:26;16.20;99.90
12049;DHT22;6085;49.452;8.502;2023-06-14T03:22:28;16.20;99.90
12049;DHT22;6085;49.452;8.502;2023-06-14T03:26:30;16.30;99.90
12049;DHT22;6085;49.452;8.502;2023-06-14T03:30:34;16.20;99.90
12049;DHT22;6085;49.452;8.502;2023-06-14T03:34:38;16.20;99.90
12049;DHT22;6085;49.452;8.502;2023-06-14T03:38:40;16.30;99.90
12049;DHT22;6085;49.452;8.502;2023-06-14T03:42:42;16.30;99.90
12049;DHT22;6085;49.452;8.502;2023-06-14T03:46:44;16.30;99.90
12049;DHT22;6085;49.452;8.502;2023-06-14T03:50:48;16.30;99.90
12049;DHT22;6085;49.452;8.502;2023-06-14T03:54:50;16.40;99.90
12049;DHT22;6085;49.452;8.502;2023-06-14T03:58:52;16.30;99.90
12049;DHT22;6085;49.452;8.502;2023-06-14T04:02:54;16.30;99.90
12049;DHT22;6085;49.452;8.502;2023-06-14T04:06:57;16.40;99.90
12049;DHT22;6085;49.452;8.502;2023-06-14T04:11:01;16.40;99.90
12049;DHT22;6085;49.452;8.502;2023-06-14T04:15:04;16.50;99.90
12049;DHT22;6085;49.452;8.502;2023-06-14T04:19:06;16.60;99.90
12049;DHT22;6085;49.452;8.502;2023-06-14T04:23:14;16.70;99.90
12049;DHT22;6085;49.452;8.502;2023-06-14T04:27:18;16.80;99.90
12049;DHT22;6085;49.452;8.502;2023-06-14T04:31:22;16.80;99.90
12049;DHT22;6085;49.452;8.502;2023-06-14T04:35:25;16.90;99.90
12049;DHT22;6085;49.452;8.502;2023-06-14T04:39:29;17.00;99.90
12049;DHT22;6085;49.452;8.502;2023-06-14T04:43:32;17.10;99.90
12049;DHT22;6085;49.452;8.502;2023-06-14T04:47:38;17.20;99.90
12049;DHT22;6085;49.452;8.502;2023-06-14T04:51:41;17.40;99.90
12049;DHT22;6085;49.452;8.502;2023-06-14T04:55:44;17.60;99.90
12049;DHT22;6085;49.452;8.502;2023-06-14T04:59:46;17.70;99.90
12049;DHT22;6085;49.452;8.502;2023-06-14T05:03:48;17.70;99.90
12049;DHT22;6085;49.452;8.502;2023-06-14T05:07:51;17.80;99.70
12049;DHT22;6085;49.452;8.502;2023-06-14T05:11:54;17.90;99.80
12049;DHT22;6085;49.452;8.502;2023-06-14T05:15:56;18.00;99.40
12049;DHT22;6085;49.452;8.502;2023-06-14T05:19:58;18.10;98.90
12049;DHT22;6085;49.452;8.502;2023-06-14T05:24:00;18.20;98.70
12049;DHT22;6085;49.452;8.502;2023-06-14T05:28:04;18.40;98.40
12049;DHT22;6085;49.452;8.502;2023-06-14T05:32:07;18.60;98.30
12049;DHT22;6085;49.452;8.502;2023-06-14T05:36:09;18.90;97.40
12049;DHT22;6085;49.452;8.502;2023-06-14T05:40:11;19.20;96.60
12049;DHT22;6085;49.452;8.502;2023-06-14T05:44:15;19.70;95.40
12049;DHT22;6085;49.452;8.502;2023-06-14T05:48:17;20.20;94.30
12049;DHT22;6085;49.452;8.502;2023-06-14T05:52:21;20.80;93.50
12049;DHT22;6085;49.452;8.502;2023-06-14T05:56:23;21.30;92.20
12049;DHT22;6085;49.452;8.502;2023-06-14T06:00:28;21.50;91.40
12049;DHT22;6085;49.452;8.502;2023-06-14T06:04:30;21.80;91.00
12049;DHT22;6085;49.452;8.502;2023-06-14T06:08:32;22.10;90.30
12049;DHT22;6085;49.452;8.502;2023-06-14T06:12:35;22.20;89.60
12049;DHT22;6085;49.452;8.502;2023-06-14T06:16:39;22.40;88.50
12049;DHT22;6085;49.452;8.502;2023-06-14T06:20:41;22.80;86.60
12049;DHT22;6085;49.452;8.502;2023-06-14T06:24:44;23.20;83.50
12049;DHT22;6085;49.452;8.502;2023-06-14T06:28:46;24.10;81.20
12049;DHT22;6085;49.452;8.502;2023-06-14T06:32:50;25.30;76.60
12049;DHT22;6085;49.452;8.502;2023-06-14T06:36:52;26.70;72.20
12049;DHT22;6085;49.452;8.502;2023-06-14T06:40:54;27.50;66.20
12049;DHT22;6085;49.452;8.502;2023-06-14T06:44:57;27.60;64.30
12049;DHT22;6085;49.452;8.502;2023-06-14T06:49:00;27.70;63.80
12049;DHT22;6085;49.452;8.502;2023-06-14T06:53:02;28.50;62.10
12049;DHT22;6085;49.452;8.502;2023-06-14T06:57:04;28.70;60.20
12049;DHT22;6085;49.452;8.502;2023-06-14T07:01:08;28.80;59.20
12049;DHT22;6085;49.452;8.502;2023-06-14T07:05:12;29.70;58.00
12049;DHT22;6085;49.452;8.502;2023-06-14T07:09:14;30.40;54.90
12049;DHT22;6085;49.452;8.502;2023-06-14T07:13:16;30.80;53.80
12049;DHT22;6085;49.452;8.502;2023-06-14T07:17:18;30.90;52.40
12049;DHT22;6085;49.452;8.502;2023-06-14T07:21:23;31.60;51.70
12049;DHT22;6085;49.452;8.502;2023-06-14T07:25:26;32.90;49.50
12049;DHT22;6085;49.452;8.502;2023-06-14T07:29:28;33.10;47.50
12049;DHT22;6085;49.452;8.502;2023-06-14T07:33:33;33.70;46.30
12049;DHT22;6085;49.452;8.502;2023-06-14T07:37:36;33.60;45.30
12049;DHT22;6085;49.452;8.502;2023-06-14T07:41:39;33.30;45.60
12049;DHT22;6085;49.452;8.502;2023-06-14T07:45:41;34.20;44.00
12049;DHT22;6085;49.452;8.502;2023-06-14T07:49:43;34.50;43.10
12049;DHT22;6085;49.452;8.502;2023-06-14T07:53:46;35.20;42.50
12049;DHT22;6085;49.452;8.502;2023-06-14T07:57:48;35.20;41.30
12049;DHT22;6085;49.452;8.502;2023-06-14T08:01:50;35.50;40.60
12049;DHT22;6085;49.452;8.502;2023-06-14T08:05:52;34.90;40.60
12049;DHT22;6085;49.452;8.502;2023-06-14T08:09:56;35.70;39.40
12049;DHT22;6085;49.452;8.502;2023-06-14T08:13:58;36.50;38.60
12049;DHT22;6085;49.452;8.502;2023-06-14T08:17:59;36.50;38.10
12049;DHT22;6085;49.452;8.502;2023-06-14T08:22:02;36.80;37.20
12049;DHT22;6085;49.452;8.502;2023-06-14T08:26:06;37.20;36.20
12049;DHT22;6085;49.452;8.502;2023-06-14T08:30:09;37.30;35.60
12049;DHT22;6085;49.452;8.502;2023-06-14T08:34:11;37.40;35.70
12049;DHT22;6085;49.452;8.502;2023-06-14T08:38:13;37.10;35.50
12049;DHT22;6085;49.452;8.502;2023-06-14T08:42:19;36.80;35.90
12049;DHT22;6085;49.452;8.502;2023-06-14T08:46:25;37.10;36.20
12049;DHT22;6085;49.452;8.502;2023-06-14T08:50:28;37.70;34.60
12049;DHT22;6085;49.452;8.502;2023-06-14T08:54:31;37.90;34.40
12049;DHT22;6085;49.452;8.502;2023-06-14T08:58:38;37.50;34.60
12049;DHT22;6085;49.452;8.502;2023-06-14T09:02:44;37.70;32.60
12049;DHT22;6085;49.452;8.502;2023-06-14T09:06:46;37.70;32.70
12049;DHT22;6085;49.452;8.502;2023-06-14T09:10:53;37.50;33.10
12049;DHT22;6085;49.452;8.502;2023-06-14T09:14:56;37.70;33.30
12049;DHT22;6085;49.452;8.502;2023-06-14T09:18:58;37.60;32.10
12049;DHT22;6085;49.452;8.502;2023-06-14T09:23:00;37.20;33.10
12049;DHT22;6085;49.452;8.502;2023-06-14T09:27:03;37.50;30.10
12049;DHT22;6085;49.452;8.502;2023-06-14T09:31:08;37.60;31.70
12049;DHT22;6085;49.452;8.502;2023-06-14T09:35:10;37.90;31.40
12049;DHT22;6085;49.452;8.502;2023-06-14T09:39:17;37.90;31.00
12049;DHT22;6085;49.452;8.502;2023-06-14T09:43:19;37.40;31.70
12049;DHT22;6085;49.452;8.502;2023-06-14T09:47:24;37.40;31.90
12049;DHT22;6085;49.452;8.502;2023-06-14T09:51:27;37.60;31.70
12049;DHT22;6085;49.452;8.502;2023-06-14T09:55:34;37.60;31.40
12049;DHT22;6085;49.452;8.502;2023-06-14T09:59:36;36.40;32.70
12049;DHT22;6085;49.452;8.502;2023-06-14T10:03:44;35.80;33.50
12049;DHT22;6085;49.452;8.502;2023-06-14T10:07:50;35.10;34.70
12049;DHT22;6085;49.452;8.502;2023-06-14T10:11:54;34.10;34.20
12049;DHT22;6085;49.452;8.502;2023-06-14T10:16:02;34.20;34.50
12049;DHT22;6085;49.452;8.502;2023-06-14T10:20:19;34.10;35.80
12049;DHT22;6085;49.452;8.502;2023-06-14T10:24:29;33.80;36.40
12049;DHT22;6085;49.452;8.502;2023-06-14T10:28:32;33.50;36.70
12049;DHT22;6085;49.452;8.502;2023-06-14T10:32:35;33.70;35.80
12049;DHT22;6085;49.452;8.502;2023-06-14T10:37:02;32.70;37.00
12049;DHT22;6085;49.452;8.502;2023-06-14T10:41:05;31.30;36.40
12049;DHT22;6085;49.452;8.502;2023-06-14T10:45:13;29.80;39.40
12049;DHT22;6085;49.452;8.502;2023-06-14T10:49:16;31.00;39.50
12049;DHT22;6085;49.452;8.502;2023-06-14T10:53:23;32.20;37.50
12049;DHT22;6085;49.452;8.502;2023-06-14T10:57:25;32.00;37.00
12049;DHT22;6085;49.452;8.502;2023-06-14T11:01:36;32.10;37.40
12049;DHT22;6085;49.452;8.502;2023-06-14T11:05:48;32.30;37.10
12049;DHT22;6085;49.452;8.502;2023-06-14T11:10:03;33.00;36.30
12049;DHT22;6085;49.452;8.502;2023-06-14T11:14:07;31.40;37.40
12049;DHT22;6085;49.452;8.502;2023-06-14T11:18:09;30.90;37.90
12049;DHT22;6085;49.452;8.502;2023-06-14T11:22:12;32.30;36.40
12049;DHT22;6085;49.452;8.502;2023-06-14T11:26:23;33.50;34.70
12049;DHT22;6085;49.452;8.502;2023-06-14T11:30:26;33.40;35.00
12049;DHT22;6085;49.452;8.502;2023-06-14T11:34:28;33.60;35.40
12049;DHT22;6085;49.452;8.502;2023-06-14T11:38:30;33.40;35.60
12049;DHT22;6085;49.452;8.502;2023-06-14T11:42:39;33.40;35.20
12049;DHT22;6085;49.452;8.502;2023-06-14T11:46:41;32.90;35.90
12049;DHT22;6085;49.452;8.502;2023-06-14T11:50:43;31.30;37.40
12049;DHT22;6085;49.452;8.502;2023-06-14T11:54:47;31.70;38.10
12049;DHT22;6085;49.452;8.502;2023-06-14T11:58:52;32.00;37.20
12049;DHT22;6085;49.452;8.502;2023-06-14T12:02:57;30.70;39.90
12049;DHT22;6085;49.452;8.502;2023-06-14T12:07:08;30.60;39.60
12049;DHT22;6085;49.452;8.502;2023-06-14T12:11:13;29.80;40.40
12049;DHT22;6085;49.452;8.502;2023-06-14T12:15:17;28.70;41.00
12049;DHT22;6085;49.452;8.502;2023-06-14T12:19:26;28.30;42.80
12049;DHT22;6085;49.452;8.502;2023-06-14T12:23:46;28.70;42.00
12049;DHT22;6085;49.452;8.502;2023-06-14T12:27:48;29.00;42.40
12049;DHT22;6085;49.452;8.502;2023-06-14T12:31:52;28.30;42.20
12049;DHT22;6085;49.452;8.502;2023-06-14T12:35:57;27.60;43.60
12049;DHT22;6085;49.452;8.502;2023-06-14T12:39:59;27.80;44.20
12049;DHT22;6085;49.452;8.502;2023-06-14T12:44:01;28.20;43.30
12049;DHT22;6085;49.452;8.502;2023-06-14T12:48:06;28.30;43.90
12049;DHT22;6085;49.452;8.502;2023-06-14T12:52:10;28.50;42.60
12049;DHT22;6085;49.452;8.502;2023-06-14T12:56:11;28.30;43.30
12049;DHT22;6085;49.452;8.502;2023-06-14T13:00:14;28.70;42.70
12049;DHT22;6085;49.452;8.502;2023-06-14T13:04:19;29.20;42.30
12049;DHT22;6085;49.452;8.502;2023-06-14T13:08:21;29.00;42.60
12049;DHT22;6085;49.452;8.502;2023-06-14T13:12:23;28.20;42.70
12049;DHT22;6085;49.452;8.502;2023-06-14T13:16:25;27.20;44.30
12049;DHT22;6085;49.452;8.502;2023-06-14T13:20:28;26.60;45.00
12049;DHT22;6085;49.452;8.502;2023-06-14T13:24:30;26.40;45.50
12049;DHT22;6085;49.452;8.502;2023-06-14T13:28:32;26.40;45.60
12049;DHT22;6085;49.452;8.502;2023-06-14T13:32:35;26.50;44.80
12049;DHT22;6085;49.452;8.502;2023-06-14T13:36:39;27.20;44.00
12049;DHT22;6085;49.452;8.502;2023-06-14T13:40:41;28.10;43.50
12049;DHT22;6085;49.452;8.502;2023-06-14T13:44:43;28.40;43.40
12049;DHT22;6085;49.452;8.502;2023-06-14T13:48:45;28.10;43.70
12049;DHT22;6085;49.452;8.502;2023-06-14T13:52:49;27.40;44.60
12049;DHT22;6085;49.452;8.502;2023-06-14T13:56:51;27.00;45.90
12049;DHT22;6085;49.452;8.502;2023-06-14T14:00:53;27.00;45.90
12049;DHT22;6085;49.452;8.502;2023-06-14T14:04:55;26.90;45.60
12049;DHT22;6085;49.452;8.502;2023-06-14T14:08:59;26.30;47.50
12049;DHT22;6085;49.452;8.502;2023-06-14T14:13:01;26.10;47.70
12049;DHT22;6085;49.452;8.502;2023-06-14T14:17:04;26.10;47.80
12049;DHT22;6085;49.452;8.502;2023-06-14T14:21:06;26.40;47.60
12049;DHT22;6085;49.452;8.502;2023-06-14T14:25:10;26.80;47.40
12049;DHT22;6085;49.452;8.502;2023-06-14T14:29:12;26.90;47.40
12049;DHT22;6085;49.452;8.502;2023-06-14T14:33:14;26.80;46.50
12049;DHT22;6085;49.452;8.502;2023-06-14T14:37:18;26.50;47.70
12049;DHT22;6085;49.452;8.502;2023-06-14T14:41:23;26.50;47.20
12049;DHT22;6085;49.452;8.502;2023-06-14T14:45:25;26.40;47.40
12049;DHT22;6085;49.452;8.502;2023-06-14T14:49:27;26.10;48.10
12049;DHT22;6085;49.452;8.502;2023-06-14T14:53:29;26.10;47.70
12049;DHT22;6085;49.452;8.502;2023-06-14T14:57:32;26.30;46.70
12049;DHT22;6085;49.452;8.502;2023-06-14T15:01:34;26.40;46.70
12049;DHT22;6085;49.452;8.502;2023-06-14T15:05:36;26.50;47.60
12049;DHT22;6085;49.452;8.502;2023-06-14T15:09:38;26.90;47.00
12049;DHT22;6085;49.452;8.502;2023-06-14T15:13:42;26.90;46.90
12049;DHT22;6085;49.452;8.502;2023-06-14T15:17:44;26.50;46.70
12049;DHT22;6085;49.452;8.502;2023-06-14T15:21:46;26.20;47.20
12049;DHT22;6085;49.452;8.502;2023-06-14T15:25:48;26.10;47.30
12049;DHT22;6085;49.452;8.502;2023-06-14T15:29:51;25.90;47.70
12049;DHT22;6085;49.452;8.502;2023-06-14T15:33:53;25.70;47.50
12049;DHT22;6085;49.452;8.502;2023-06-14T15:37:55;25.50;48.00
12049;DHT22;6085;49.452;8.502;2023-06-14T15:41:58;25.40;48.40
12049;DHT22;6085;49.452;8.502;2023-06-14T15:46:03;25.30;49.00
12049;DHT22;6085;49.452;8.502;2023-06-14T15:50:06;25.30;48.80
12049;DHT22;6085;49.452;8.502;2023-06-14T15:54:09;25.50;49.30
12049;DHT22;6085;49.452;8.502;2023-06-14T15:58:11;25.60;48.80
12049;DHT22;6085;49.452;8.502;2023-06-14T16:02:15;25.60;49.60
12049;DHT22;6085;49.452;8.502;2023-06-14T16:06:17;25.70;49.10
12049;DHT22;6085;49.452;8.502;2023-06-14T16:10:19;25.60;48.50
12049;DHT22;6085;49.452;8.502;2023-06-14T16:14:21;25.40;48.60
12049;DHT22;6085;49.452;8.502;2023-06-14T16:18:24;25.20;49.20
12049;DHT22;6085;49.452;8.502;2023-06-14T16:22:29;24.90;49.60
12049;DHT22;6085;49.452;8.502;2023-06-14T16:26:31;24.60;50.00
12049;DHT22;6085;49.452;8.502;2023-06-14T16:30:33;24.50;49.60
12049;DHT22;6085;49.452;8.502;2023-06-14T16:34:36;24.50;50.00
12049;DHT22;6085;49.452;8.502;2023-06-14T16:38:38;24.70;49.50
12049;DHT22;6085;49.452;8.502;2023-06-14T16:42:43;25.00;49.40
12049;DHT22;6085;49.452;8.502;2023-06-14T16:46:46;25.40;49.30
12049;DHT22;6085;49.452;8.502;2023-06-14T16:50:50;25.50;49.00
12049;DHT22;6085;49.452;8.502;2023-06-14T16:54:52;25.50;48.30
12049;DHT22;6085;49.452;8.502;2023-06-14T16:58:56;25.40;48.70
12049;DHT22;6085;49.452;8.502;2023-06-14T17:02:58;25.60;48.80
12049;DHT22;6085;49.452;8.502;2023-06-14T17:07:02;25.40;48.90
12049;DHT22;6085;49.452;8.502;2023-06-14T17:11:05;25.00;49.70
12049;DHT22;6085;49.452;8.502;2023-06-14T17:15:08;24.70;49.90
12049;DHT22;6085;49.452;8.502;2023-06-14T17:19:10;24.40;50.40
12049;DHT22;6085;49.452;8.502;2023-06-14T17:23:14;24.10;50.90
12049;DHT22;6085;49.452;8.502;2023-06-14T17:27:16;23.90;51.40
12049;DHT22;6085;49.452;8.502;2023-06-14T17:31:18;23.70;52.00
12049;DHT22;6085;49.452;8.502;2023-06-14T17:35:21;23.50;51.80
12049;DHT22;6085;49.452;8.502;2023-06-14T17:39:25;23.40;51.50
12049;DHT22;6085;49.452;8.502;2023-06-14T17:43:27;23.40;52.00
12049;DHT22;6085;49.452;8.502;2023-06-14T17:47:29;23.30;52.20
12049;DHT22;6085;49.452;8.502;2023-06-14T17:51:31;23.30;52.30
12049;DHT22;6085;49.452;8.502;2023-06-14T17:55:34;23.30;51.60
12049;DHT22;6085;49.452;8.502;2023-06-14T17:59:36;23.30;51.80
12049;DHT22;6085;49.452;8.502;2023-06-14T18:03:39;23.30;51.50
12049;DHT22;6085;49.452;8.502;2023-06-14T18:07:44;23.20;51.60
12049;DHT22;6085;49.452;8.502;2023-06-14T18:11:48;23.10;51.50
12049;DHT22;6085;49.452;8.502;2023-06-14T18:15:50;23.00;51.90
12049;DHT22;6085;49.452;8.502;2023-06-14T18:19:52;22.90;52.10
12049;DHT22;6085;49.452;8.502;2023-06-14T18:23:54;23.10;52.00
12049;DHT22;6085;49.452;8.502;2023-06-14T18:27:57;23.30;51.50
12049;DHT22;6085;49.452;8.502;2023-06-14T18:31:59;23.30;51.90
12049;DHT22;6085;49.452;8.502;2023-06-14T18:36:01;23.30;52.60
12049;DHT22;6085;49.452;8.502;2023-06-14T18:40:05;23.10;52.50
12049;DHT22;6085;49.452;8.502;2023-06-14T18:44:08;23.00;52.50
12049;DHT22;6085;49.452;8.502;2023-06-14T18:48:10;23.00;52.50
12049;DHT22;6085;49.452;8.502;2023-06-14T18:52:12;22.80;52.80
12049;DHT22;6085;49.452;8.502;2023-06-14T18:56:14;22.70;53.20
12049;DHT22;6085;49.452;8.502;2023-06-14T19:00:18;22.70;53.50
12049;DHT22;6085;49.452;8.502;2023-06-14T19:04:20;22.60;53.90
12049;DHT22;6085;49.452;8.502;2023-06-14T19:08:22;22.60;54.30
12049;DHT22;6085;49.452;8.502;2023-06-14T19:12:24;22.50;54.70
12049;DHT22;6085;49.452;8.502;2023-06-14T19:16:27;22.40;54.80
12049;DHT22;6085;49.452;8.502;2023-06-14T19:20:30;22.20;55.20
12049;DHT22;6085;49.452;8.502;2023-06-14T19:24:32;22.10;55.40
12049;DHT22;6085;49.452;8.502;2023-06-14T19:28:34;22.00;55.80
12049;DHT22;6085;49.452;8.502;2023-06-14T19:32:38;22.00;56.10
12049;DHT22;6085;49.452;8.502;2023-06-14T19:36:47;21.90;56.00
12049;DHT22;6085;49.452;8.502;2023-06-14T19:40:49;21.70;56.60
12049;DHT22;6085;49.452;8.502;2023-06-14T19:44:51;21.60;56.70
12049;DHT22;6085;49.452;8.502;2023-06-14T19:48:54;21.50;56.90
12049;DHT22;6085;49.452;8.502;2023-06-14T19:52:56;21.40;57.20
12049;DHT22;6085;49.452;8.502;2023-06-14T19:56:58;21.40;57.40
12049;DHT22;6085;49.452;8.502;2023-06-14T20:01:00;21.20;57.80
12049;DHT22;6085;49.452;8.502;2023-06-14T20:05:04;21.10;58.30
12049;DHT22;6085;49.452;8.502;2023-06-14T20:09:07;21.00;58.70
12049;DHT22;6085;49.452;8.502;2023-06-14T20:13:14;21.00;59.20
12049;DHT22;6085;49.452;8.502;2023-06-14T20:17:16;21.00;59.40
12049;DHT22;6085;49.452;8.502;2023-06-14T20:21:19;21.00;59.60
12049;DHT22;6085;49.452;8.502;2023-06-14T20:25:21;21.10;59.90
12049;DHT22;6085;49.452;8.502;2023-06-14T20:29:23;21.10;60.10
12049;DHT22;6085;49.452;8.502;2023-06-14T20:33:25;21.00;60.40
12049;DHT22;6085;49.452;8.502;2023-06-14T20:37:28;20.90;60.70
12049;DHT22;6085;49.452;8.502;2023-06-14T20:41:30;20.80;60.90
12049;DHT22;6085;49.452;8.502;2023-06-14T20:45:32;20.70;61.40
12049;DHT22;6085;49.452;8.502;2023-06-14T20:49:35;20.60;61.80
12049;DHT22;6085;49.452;8.502;2023-06-14T20:53:38;20.60;62.80
12049;DHT22;6085;49.452;8.502;2023-06-14T20:57:40;20.50;62.90
12049;DHT22;6085;49.452;8.502;2023-06-14T21:01:42;20.50;63.20
12049;DHT22;6085;49.452;8.502;2023-06-14T21:05:44;20.40;63.40
12049;DHT22;6085;49.452;8.502;2023-06-14T21:09:47;20.40;63.80
12049;DHT22;6085;49.452;8.502;2023-06-14T21:13:51;20.30;64.40
12049;DHT22;6085;49.452;8.502;2023-06-14T21:17:56;20.20;64.90
12049;DHT22;6085;49.452;8.502;2023-06-14T21:21:58;20.10;66.00
12049;DHT22;6085;49.452;8.502;2023-06-14T21:26:01;20.00;66.50
12049;DHT22;6085;49.452;8.502;2023-06-14T21:30:04;19.90;67.20
12049;DHT22;6085;49.452;8.502;2023-06-14T21:34:06;19.80;67.50
12049;DHT22;6085;49.452;8.502;2023-06-14T21:38:09;19.70;68.10
12049;DHT22;6085;49.452;8.502;2023-06-14T21:42:13;19.60;68.60
12049;DHT22;6085;49.452;8.502;2023-06-14T21:46:17;19.50;69.00
12049;DHT22;6085;49.452;8.502;2023-06-14T21:50:19;19.50;69.80
12049;DHT22;6085;49.452;8.502;2023-06-14T21:54:24;19.50;70.30
12049;DHT22;6085;49.452;8.502;2023-06-14T21:58:27;19.40;70.80
12049;DHT22;6085;49.452;8.502;2023-06-14T22:02:29;19.40;71.30
12049;DHT22;6085;49.452;8.502;2023-06-14T22:06:31;19.20;72.00
12049;DHT22;6085;49.452;8.502;2023-06-14T22:10:33;19.10;73.10
12049;DHT22;6085;49.452;8.502;2023-06-14T22:14:39;19.00;74.30
12049;DHT22;6085;49.452;8.502;2023-06-14T22:18:41;18.80;75.50
12049;DHT22;6085;49.452;8.502;2023-06-14T22:22:45;18.70;76.60
12049;DHT22;6085;49.452;8.502;2023-06-14T22:26:48;18.60;77.30
12049;DHT22;6085;49.452;8.502;2023-06-14T22:30:57;18.60;78.20
12049;DHT22;6085;49.452;8.502;2023-06-14T22:35:00;18.50;78.90
12049;DHT22;6085;49.452;8.502;2023-06-14T22:39:04;18.50;79.80
12049;DHT22;6085;49.452;8.502;2023-06-14T22:43:06;18.40;80.70
12049;DHT22;6085;49.452;8.502;2023-06-14T22:47:09;18.30;81.60
12049;DHT22;6085;49.452;8.502;2023-06-14T22:51:14;18.30;82.90
12049;DHT22;6085;49.452;8.502;2023-06-14T22:55:16;18.20;83.70
12049;DHT22;6085;49.452;8.502;2023-06-14T22:59:18;18.10;84.50
12049;DHT22;6085;49.452;8.502;2023-06-14T23:03:21;18.10;85.60
12049;DHT22;6085;49.452;8.502;2023-06-14T23:07:25;18.00;86.60
12049;DHT22;6085;49.452;8.502;2023-06-14T23:11:27;18.00;86.90
12049;DHT22;6085;49.452;8.502;2023-06-14T23:15:29;18.00;87.50
12049;DHT22;6085;49.452;8.502;2023-06-14T23:19:33;17.90;88.00
12049;DHT22;6085;49.452;8.502;2023-06-14T23:23:36;17.90;88.80
12049;DHT22;6085;49.452;8.502;2023-06-14T23:27:40;17.80;89.80
12049;DHT22;6085;49.452;8.502;2023-06-14T23:31:41;17.70;90.90
12049;DHT22;6085;49.452;8.502;2023-06-14T23:35:45;17.50;91.70
12049;DHT22;6085;49.452;8.502;2023-06-14T23:39:47;17.50;92.40
12049;DHT22;6085;49.452;8.502;2023-06-14T23:43:51;17.40;93.00
12049;DHT22;6085;49.452;8.502;2023-06-14T23:47:53;17.30;94.10
12049;DHT22;6085;49.452;8.502;2023-06-14T23:51:56;17.30;94.80
12049;DHT22;6085;49.452;8.502;2023-06-14T23:56:02;17.20;95.30
